Moselle, Mississippi
Current Conditions -  °F | °C
As of 2:15 PM on Thursday 18 Dec 2014 (Local Time) from KPIB Reporting Station
Overcast Overcast  
Wind Chill: 55°   Ceiling: 3100
Heat Index: 55°   Visibility: 10mi
Dew Point: 41°   Wind: 9mph
Humidity: 58%   Direction: 10°N
Pressure: 30.14"   Gusts: NA
Location:  31.5°N, 89.28°W
Report Text: KPIB 182015Z AUTO 01008KT 10SM BKN031 OVC038 13/05 A3014 RMK AO1
Loading
Personal Weather Stations






























Interactive Weather Map New forecast layout! Learn more

10-Day Weather Forecast

Advertisements
Track Severe Weather on mobile